sensor_id;sensor_type;location;lat;lon;timestamp;P1;durP1;ratioP1;P2;durP2;ratioP2
21806;SDS011;11065;50.786;7.840;2023-07-20T00:01:06;3.63;;;2.00;;
21806;SDS011;11065;50.786;7.840;2023-07-20T00:03:34;3.60;;;2.10;;
21806;SDS011;11065;50.786;7.840;2023-07-20T00:06:03;4.67;;;2.17;;
21806;SDS011;11065;50.786;7.840;2023-07-20T00:08:31;7.20;;;2.03;;
21806;SDS011;11065;50.786;7.840;2023-07-20T00:10:59;3.00;;;1.77;;
21806;SDS011;11065;50.786;7.840;2023-07-20T00:13:27;4.73;;;2.40;;
21806;SDS011;11065;50.786;7.840;2023-07-20T00:15:55;3.70;;;2.00;;
21806;SDS011;11065;50.786;7.840;2023-07-20T00:18:23;3.77;;;2.10;;
21806;SDS011;11065;50.786;7.840;2023-07-20T00:20:51;3.30;;;1.83;;
21806;SDS011;11065;50.786;7.840;2023-07-20T00:23:20;3.27;;;2.00;;
21806;SDS011;11065;50.786;7.840;2023-07-20T00:25:48;4.53;;;2.13;;
21806;SDS011;11065;50.786;7.840;2023-07-20T00:28:16;4.10;;;1.97;;
21806;SDS011;11065;50.786;7.840;2023-07-20T00:30:44;2.83;;;1.70;;
21806;SDS011;11065;50.786;7.840;2023-07-20T00:33:12;3.30;;;1.80;;
21806;SDS011;11065;50.786;7.840;2023-07-20T00:35:40;5.73;;;2.00;;
21806;SDS011;11065;50.786;7.840;2023-07-20T00:38:08;4.23;;;2.03;;
21806;SDS011;11065;50.786;7.840;2023-07-20T00:40:37;3.50;;;2.03;;
21806;SDS011;11065;50.786;7.840;2023-07-20T00:43:06;2.87;;;2.00;;
21806;SDS011;11065;50.786;7.840;2023-07-20T00:45:34;4.43;;;1.90;;
21806;SDS011;11065;50.786;7.840;2023-07-20T00:48:04;3.77;;;1.80;;
21806;SDS011;11065;50.786;7.840;2023-07-20T00:50:35;4.47;;;2.23;;
21806;SDS011;11065;50.786;7.840;2023-07-20T00:53:03;4.13;;;2.00;;
21806;SDS011;11065;50.786;7.840;2023-07-20T00:55:32;4.67;;;2.13;;
21806;SDS011;11065;50.786;7.840;2023-07-20T00:58:02;4.30;;;2.10;;
21806;SDS011;11065;50.786;7.840;2023-07-20T01:00:31;2.93;;;1.80;;
21806;SDS011;11065;50.786;7.840;2023-07-20T01:02:58;3.37;;;1.70;;
21806;SDS011;11065;50.786;7.840;2023-07-20T01:05:30;4.23;;;2.30;;
21806;SDS011;11065;50.786;7.840;2023-07-20T01:08:07;3.40;;;2.00;;
21806;SDS011;11065;50.786;7.840;2023-07-20T01:10:40;4.37;;;1.97;;
21806;SDS011;11065;50.786;7.840;2023-07-20T01:13:13;5.43;;;2.03;;
21806;SDS011;11065;50.786;7.840;2023-07-20T01:15:42;5.73;;;2.03;;
21806;SDS011;11065;50.786;7.840;2023-07-20T01:18:17;6.37;;;2.40;;
21806;SDS011;11065;50.786;7.840;2023-07-20T01:20:45;4.30;;;2.20;;
21806;SDS011;11065;50.786;7.840;2023-07-20T01:23:19;4.93;;;2.43;;
21806;SDS011;11065;50.786;7.840;2023-07-20T01:26:02;5.27;;;2.57;;
21806;SDS011;11065;50.786;7.840;2023-07-20T01:28:51;5.40;;;2.43;;
21806;SDS011;11065;50.786;7.840;2023-07-20T01:31:37;4.90;;;2.17;;
21806;SDS011;11065;50.786;7.840;2023-07-20T01:34:07;5.63;;;2.33;;
21806;SDS011;11065;50.786;7.840;2023-07-20T01:36:39;5.10;;;2.30;;
21806;SDS011;11065;50.786;7.840;2023-07-20T01:39:07;4.47;;;2.23;;
21806;SDS011;11065;50.786;7.840;2023-07-20T01:41:36;5.97;;;2.43;;
21806;SDS011;11065;50.786;7.840;2023-07-20T01:44:05;3.17;;;1.87;;
21806;SDS011;11065;50.786;7.840;2023-07-20T01:46:33;5.27;;;2.13;;
21806;SDS011;11065;50.786;7.840;2023-07-20T01:49:02;4.37;;;1.97;;
21806;SDS011;11065;50.786;7.840;2023-07-20T01:51:31;4.60;;;2.17;;
21806;SDS011;11065;50.786;7.840;2023-07-20T01:53:58;7.10;;;2.60;;
21806;SDS011;11065;50.786;7.840;2023-07-20T01:56:27;3.60;;;2.20;;
21806;SDS011;11065;50.786;7.840;2023-07-20T01:58:55;4.50;;;2.40;;
21806;SDS011;11065;50.786;7.840;2023-07-20T02:01:23;4.47;;;2.30;;
21806;SDS011;11065;50.786;7.840;2023-07-20T02:03:51;4.23;;;2.30;;
21806;SDS011;11065;50.786;7.840;2023-07-20T02:06:20;5.23;;;2.43;;
21806;SDS011;11065;50.786;7.840;2023-07-20T02:08:49;3.43;;;2.17;;
21806;SDS011;11065;50.786;7.840;2023-07-20T02:11:17;4.17;;;2.17;;
21806;SDS011;11065;50.786;7.840;2023-07-20T02:13:44;3.67;;;2.03;;
21806;SDS011;11065;50.786;7.840;2023-07-20T02:16:12;4.33;;;2.43;;
21806;SDS011;11065;50.786;7.840;2023-07-20T02:18:40;6.07;;;2.83;;
21806;SDS011;11065;50.786;7.840;2023-07-20T02:21:08;3.57;;;2.30;;
21806;SDS011;11065;50.786;7.840;2023-07-20T02:23:40;4.27;;;2.00;;
21806;SDS011;11065;50.786;7.840;2023-07-20T02:26:07;3.73;;;2.37;;
21806;SDS011;11065;50.786;7.840;2023-07-20T02:28:35;5.47;;;2.60;;
21806;SDS011;11065;50.786;7.840;2023-07-20T02:31:03;4.10;;;2.57;;
21806;SDS011;11065;50.786;7.840;2023-07-20T02:33:31;3.90;;;1.93;;
21806;SDS011;11065;50.786;7.840;2023-07-20T02:35:59;7.17;;;2.20;;
21806;SDS011;11065;50.786;7.840;2023-07-20T02:38:27;5.50;;;2.20;;
21806;SDS011;11065;50.786;7.840;2023-07-20T02:40:56;5.77;;;2.73;;
21806;SDS011;11065;50.786;7.840;2023-07-20T02:43:24;6.13;;;2.97;;
21806;SDS011;11065;50.786;7.840;2023-07-20T02:45:52;5.53;;;2.70;;
21806;SDS011;11065;50.786;7.840;2023-07-20T02:48:20;6.13;;;3.23;;
21806;SDS011;11065;50.786;7.840;2023-07-20T02:50:48;4.47;;;2.60;;
21806;SDS011;11065;50.786;7.840;2023-07-20T02:53:16;3.30;;;2.53;;
21806;SDS011;11065;50.786;7.840;2023-07-20T02:55:44;4.53;;;2.30;;
21806;SDS011;11065;50.786;7.840;2023-07-20T02:58:14;5.03;;;2.50;;
21806;SDS011;11065;50.786;7.840;2023-07-20T03:00:42;4.40;;;2.53;;
21806;SDS011;11065;50.786;7.840;2023-07-20T03:03:11;3.60;;;2.20;;
21806;SDS011;11065;50.786;7.840;2023-07-20T03:05:40;5.83;;;2.43;;
21806;SDS011;11065;50.786;7.840;2023-07-20T03:08:08;4.50;;;2.30;;
21806;SDS011;11065;50.786;7.840;2023-07-20T03:10:38;5.20;;;2.80;;
21806;SDS011;11065;50.786;7.840;2023-07-20T03:13:07;5.03;;;2.23;;
21806;SDS011;11065;50.786;7.840;2023-07-20T03:15:36;4.57;;;2.30;;
21806;SDS011;11065;50.786;7.840;2023-07-20T03:18:04;4.33;;;2.37;;
21806;SDS011;11065;50.786;7.840;2023-07-20T03:20:32;3.70;;;2.20;;
21806;SDS011;11065;50.786;7.840;2023-07-20T03:23:00;3.47;;;1.93;;
21806;SDS011;11065;50.786;7.840;2023-07-20T03:25:28;5.30;;;2.83;;
21806;SDS011;11065;50.786;7.840;2023-07-20T03:27:56;5.40;;;2.60;;
21806;SDS011;11065;50.786;7.840;2023-07-20T03:30:25;5.47;;;2.80;;
21806;SDS011;11065;50.786;7.840;2023-07-20T03:32:54;5.33;;;2.67;;
21806;SDS011;11065;50.786;7.840;2023-07-20T03:35:22;4.17;;;2.33;;
21806;SDS011;11065;50.786;7.840;2023-07-20T03:37:50;3.50;;;1.97;;
21806;SDS011;11065;50.786;7.840;2023-07-20T03:40:18;3.97;;;2.40;;
21806;SDS011;11065;50.786;7.840;2023-07-20T03:42:46;3.97;;;2.20;;
21806;SDS011;11065;50.786;7.840;2023-07-20T03:45:14;4.03;;;2.30;;
21806;SDS011;11065;50.786;7.840;2023-07-20T03:47:42;4.60;;;2.43;;
21806;SDS011;11065;50.786;7.840;2023-07-20T03:50:12;5.27;;;2.97;;
21806;SDS011;11065;50.786;7.840;2023-07-20T03:52:40;3.50;;;2.30;;
21806;SDS011;11065;50.786;7.840;2023-07-20T03:55:08;5.30;;;2.40;;
21806;SDS011;11065;50.786;7.840;2023-07-20T03:57:36;4.20;;;2.33;;
21806;SDS011;11065;50.786;7.840;2023-07-20T04:00:05;4.27;;;2.13;;
21806;SDS011;11065;50.786;7.840;2023-07-20T04:02:38;5.23;;;3.17;;
21806;SDS011;11065;50.786;7.840;2023-07-20T04:05:06;3.80;;;2.17;;
21806;SDS011;11065;50.786;7.840;2023-07-20T04:07:35;4.17;;;2.50;;
21806;SDS011;11065;50.786;7.840;2023-07-20T04:10:04;3.47;;;2.20;;
21806;SDS011;11065;50.786;7.840;2023-07-20T04:12:34;5.90;;;2.50;;
21806;SDS011;11065;50.786;7.840;2023-07-20T04:15:03;3.93;;;2.07;;
21806;SDS011;11065;50.786;7.840;2023-07-20T04:17:32;3.77;;;2.27;;
21806;SDS011;11065;50.786;7.840;2023-07-20T04:20:00;4.10;;;1.83;;
21806;SDS011;11065;50.786;7.840;2023-07-20T04:22:28;4.77;;;2.80;;
21806;SDS011;11065;50.786;7.840;2023-07-20T04:24:58;4.90;;;3.00;;
21806;SDS011;11065;50.786;7.840;2023-07-20T04:27:26;6.33;;;2.77;;
21806;SDS011;11065;50.786;7.840;2023-07-20T04:29:54;5.40;;;2.60;;
21806;SDS011;11065;50.786;7.840;2023-07-20T04:32:22;6.03;;;2.90;;
21806;SDS011;11065;50.786;7.840;2023-07-20T04:34:51;5.53;;;2.77;;
21806;SDS011;11065;50.786;7.840;2023-07-20T04:37:19;5.13;;;2.70;;
21806;SDS011;11065;50.786;7.840;2023-07-20T04:39:48;4.17;;;2.80;;
21806;SDS011;11065;50.786;7.840;2023-07-20T04:42:17;5.87;;;3.67;;
21806;SDS011;11065;50.786;7.840;2023-07-20T04:44:46;7.47;;;4.60;;
21806;SDS011;11065;50.786;7.840;2023-07-20T04:47:15;4.90;;;3.83;;
21806;SDS011;11065;50.786;7.840;2023-07-20T04:49:43;6.77;;;4.33;;
21806;SDS011;11065;50.786;7.840;2023-07-20T04:52:11;7.70;;;3.63;;
21806;SDS011;11065;50.786;7.840;2023-07-20T04:54:39;6.27;;;3.97;;
21806;SDS011;11065;50.786;7.840;2023-07-20T04:57:10;6.07;;;3.70;;
21806;SDS011;11065;50.786;7.840;2023-07-20T04:59:45;6.37;;;3.70;;
21806;SDS011;11065;50.786;7.840;2023-07-20T05:02:13;5.50;;;3.57;;
21806;SDS011;11065;50.786;7.840;2023-07-20T05:04:41;5.47;;;3.57;;
21806;SDS011;11065;50.786;7.840;2023-07-20T05:07:09;5.50;;;3.00;;
21806;SDS011;11065;50.786;7.840;2023-07-20T05:09:37;5.67;;;3.17;;
21806;SDS011;11065;50.786;7.840;2023-07-20T05:12:05;5.10;;;2.67;;
21806;SDS011;11065;50.786;7.840;2023-07-20T05:14:34;4.00;;;2.43;;
21806;SDS011;11065;50.786;7.840;2023-07-20T05:17:03;4.33;;;2.37;;
21806;SDS011;11065;50.786;7.840;2023-07-20T05:19:32;4.17;;;2.57;;
21806;SDS011;11065;50.786;7.840;2023-07-20T05:22:00;4.43;;;3.27;;
21806;SDS011;11065;50.786;7.840;2023-07-20T05:24:28;5.53;;;3.03;;
21806;SDS011;11065;50.786;7.840;2023-07-20T05:26:56;4.53;;;3.13;;
21806;SDS011;11065;50.786;7.840;2023-07-20T05:29:25;4.90;;;2.70;;
21806;SDS011;11065;50.786;7.840;2023-07-20T05:31:53;4.93;;;2.70;;
21806;SDS011;11065;50.786;7.840;2023-07-20T05:34:22;5.80;;;2.97;;
21806;SDS011;11065;50.786;7.840;2023-07-20T05:39:40;4.50;;;2.77;;
21806;SDS011;11065;50.786;7.840;2023-07-20T05:42:08;4.87;;;2.90;;
21806;SDS011;11065;50.786;7.840;2023-07-20T05:44:36;4.10;;;2.63;;
21806;SDS011;11065;50.786;7.840;2023-07-20T05:47:07;7.93;;;3.43;;
21806;SDS011;11065;50.786;7.840;2023-07-20T05:49:36;4.73;;;3.37;;
21806;SDS011;11065;50.786;7.840;2023-07-20T05:52:04;6.63;;;3.93;;
21806;SDS011;11065;50.786;7.840;2023-07-20T05:54:33;5.20;;;3.13;;
21806;SDS011;11065;50.786;7.840;2023-07-20T05:57:01;4.70;;;3.47;;
21806;SDS011;11065;50.786;7.840;2023-07-20T05:59:29;5.00;;;3.50;;
21806;SDS011;11065;50.786;7.840;2023-07-20T06:01:57;5.97;;;3.13;;
21806;SDS011;11065;50.786;7.840;2023-07-20T06:04:26;7.67;;;4.27;;
21806;SDS011;11065;50.786;7.840;2023-07-20T06:06:55;5.90;;;3.97;;
21806;SDS011;11065;50.786;7.840;2023-07-20T06:09:23;8.00;;;5.67;;
21806;SDS011;11065;50.786;7.840;2023-07-20T06:11:51;6.73;;;4.50;;
21806;SDS011;11065;50.786;7.840;2023-07-20T06:14:19;6.67;;;5.07;;
21806;SDS011;11065;50.786;7.840;2023-07-20T06:16:47;7.80;;;5.30;;
21806;SDS011;11065;50.786;7.840;2023-07-20T06:19:15;7.80;;;5.30;;
21806;SDS011;11065;50.786;7.840;2023-07-20T06:21:43;6.13;;;5.50;;
21806;SDS011;11065;50.786;7.840;2023-07-20T06:24:12;7.60;;;5.10;;
21806;SDS011;11065;50.786;7.840;2023-07-20T06:26:40;7.60;;;5.30;;
21806;SDS011;11065;50.786;7.840;2023-07-20T06:29:08;6.37;;;4.67;;
21806;SDS011;11065;50.786;7.840;2023-07-20T06:31:36;8.03;;;5.10;;
21806;SDS011;11065;50.786;7.840;2023-07-20T06:34:04;9.83;;;7.00;;
21806;SDS011;11065;50.786;7.840;2023-07-20T06:36:32;6.70;;;4.63;;
21806;SDS011;11065;50.786;7.840;2023-07-20T06:39:00;5.73;;;4.50;;
21806;SDS011;11065;50.786;7.840;2023-07-20T06:41:32;8.60;;;6.33;;
21806;SDS011;11065;50.786;7.840;2023-07-20T06:44:04;6.67;;;4.63;;
21806;SDS011;11065;50.786;7.840;2023-07-20T06:46:32;5.20;;;4.20;;
21806;SDS011;11065;50.786;7.840;2023-07-20T06:49:00;5.50;;;4.90;;
21806;SDS011;11065;50.786;7.840;2023-07-20T06:51:30;7.47;;;5.20;;
21806;SDS011;11065;50.786;7.840;2023-07-20T06:53:58;7.60;;;5.30;;
21806;SDS011;11065;50.786;7.840;2023-07-20T06:56:26;7.77;;;5.73;;
21806;SDS011;11065;50.786;7.840;2023-07-20T06:58:58;6.97;;;5.73;;
21806;SDS011;11065;50.786;7.840;2023-07-20T07:01:26;6.97;;;5.97;;
21806;SDS011;11065;50.786;7.840;2023-07-20T07:03:54;6.37;;;5.67;;
21806;SDS011;11065;50.786;7.840;2023-07-20T07:06:22;7.53;;;5.47;;
21806;SDS011;11065;50.786;7.840;2023-07-20T07:08:52;7.63;;;5.23;;
21806;SDS011;11065;50.786;7.840;2023-07-20T07:11:20;6.67;;;5.17;;
21806;SDS011;11065;50.786;7.840;2023-07-20T07:13:48;7.60;;;5.80;;
21806;SDS011;11065;50.786;7.840;2023-07-20T07:16:18;5.80;;;5.20;;
21806;SDS011;11065;50.786;7.840;2023-07-20T07:18:47;6.60;;;4.80;;
21806;SDS011;11065;50.786;7.840;2023-07-20T07:21:17;5.73;;;4.20;;
21806;SDS011;11065;50.786;7.840;2023-07-20T07:23:45;4.83;;;4.30;;
21806;SDS011;11065;50.786;7.840;2023-07-20T07:26:13;6.40;;;5.37;;
21806;SDS011;11065;50.786;7.840;2023-07-20T07:28:41;4.57;;;4.13;;
21806;SDS011;11065;50.786;7.840;2023-07-20T07:31:09;5.50;;;3.83;;
21806;SDS011;11065;50.786;7.840;2023-07-20T07:33:38;6.60;;;4.90;;
21806;SDS011;11065;50.786;7.840;2023-07-20T07:36:06;5.97;;;3.90;;
21806;SDS011;11065;50.786;7.840;2023-07-20T07:38:34;5.63;;;3.93;;
21806;SDS011;11065;50.786;7.840;2023-07-20T07:59:19;7.17;;;4.57;;
21806;SDS011;11065;50.786;7.840;2023-07-20T08:01:47;6.30;;;3.97;;
21806;SDS011;11065;50.786;7.840;2023-07-20T08:04:15;7.07;;;4.70;;
21806;SDS011;11065;50.786;7.840;2023-07-20T08:06:42;5.70;;;3.83;;
21806;SDS011;11065;50.786;7.840;2023-07-20T08:09:11;4.40;;;3.73;;
21806;SDS011;11065;50.786;7.840;2023-07-20T08:11:39;6.03;;;3.60;;
21806;SDS011;11065;50.786;7.840;2023-07-20T08:14:07;5.03;;;3.43;;
21806;SDS011;11065;50.786;7.840;2023-07-20T08:16:36;8.73;;;4.47;;
21806;SDS011;11065;50.786;7.840;2023-07-20T08:19:04;5.20;;;3.40;;
21806;SDS011;11065;50.786;7.840;2023-07-20T08:21:33;3.50;;;3.00;;
21806;SDS011;11065;50.786;7.840;2023-07-20T08:24:00;4.60;;;3.30;;
21806;SDS011;11065;50.786;7.840;2023-07-20T08:26:28;6.33;;;3.77;;
21806;SDS011;11065;50.786;7.840;2023-07-20T08:28:56;5.53;;;3.47;;
21806;SDS011;11065;50.786;7.840;2023-07-20T08:31:24;5.00;;;3.70;;
21806;SDS011;11065;50.786;7.840;2023-07-20T08:33:55;4.37;;;3.90;;
21806;SDS011;11065;50.786;7.840;2023-07-20T08:36:23;5.67;;;4.13;;
21806;SDS011;11065;50.786;7.840;2023-07-20T08:38:53;5.53;;;3.90;;
21806;SDS011;11065;50.786;7.840;2023-07-20T08:41:21;5.30;;;4.10;;
21806;SDS011;11065;50.786;7.840;2023-07-20T08:43:49;5.40;;;3.87;;
21806;SDS011;11065;50.786;7.840;2023-07-20T08:46:21;5.63;;;4.03;;
21806;SDS011;11065;50.786;7.840;2023-07-20T08:48:51;4.43;;;3.37;;
21806;SDS011;11065;50.786;7.840;2023-07-20T08:51:20;4.10;;;3.23;;
21806;SDS011;11065;50.786;7.840;2023-07-20T08:53:49;4.70;;;3.07;;
21806;SDS011;11065;50.786;7.840;2023-07-20T08:56:19;3.93;;;3.17;;
21806;SDS011;11065;50.786;7.840;2023-07-20T08:58:48;3.37;;;2.77;;
21806;SDS011;11065;50.786;7.840;2023-07-20T09:01:17;3.90;;;3.17;;
21806;SDS011;11065;50.786;7.840;2023-07-20T09:03:46;3.80;;;2.73;;
21806;SDS011;11065;50.786;7.840;2023-07-20T09:06:14;3.47;;;2.80;;
21806;SDS011;11065;50.786;7.840;2023-07-20T09:08:44;4.97;;;3.10;;
21806;SDS011;11065;50.786;7.840;2023-07-20T09:11:12;5.43;;;3.13;;
21806;SDS011;11065;50.786;7.840;2023-07-20T09:13:41;4.70;;;3.13;;
21806;SDS011;11065;50.786;7.840;2023-07-20T09:16:10;3.17;;;2.60;;
21806;SDS011;11065;50.786;7.840;2023-07-20T09:18:41;3.60;;;2.80;;
21806;SDS011;11065;50.786;7.840;2023-07-20T09:21:09;3.80;;;2.60;;
21806;SDS011;11065;50.786;7.840;2023-07-20T09:23:37;3.03;;;2.38;;
21806;SDS011;11065;50.786;7.840;2023-07-20T09:26:10;3.45;;;2.40;;
21806;SDS011;11065;50.786;7.840;2023-07-20T09:28:43;3.97;;;2.38;;
21806;SDS011;11065;50.786;7.840;2023-07-20T09:31:15;3.97;;;2.35;;
21806;SDS011;11065;50.786;7.840;2023-07-20T09:33:44;3.83;;;2.60;;
21806;SDS011;11065;50.786;7.840;2023-07-20T09:36:17;3.53;;;2.65;;
21806;SDS011;11065;50.786;7.840;2023-07-20T09:39:05;3.35;;;2.00;;
21806;SDS011;11065;50.786;7.840;2023-07-20T09:41:41;2.33;;;1.65;;
21806;SDS011;11065;50.786;7.840;2023-07-20T09:44:13;3.80;;;2.10;;
21806;SDS011;11065;50.786;7.840;2023-07-20T09:46:45;2.20;;;1.83;;
21806;SDS011;11065;50.786;7.840;2023-07-20T09:49:18;2.30;;;1.58;;
21806;SDS011;11065;50.786;7.840;2023-07-20T09:51:48;3.40;;;1.70;;
21806;SDS011;11065;50.786;7.840;2023-07-20T09:54:17;3.72;;;1.50;;
21806;SDS011;11065;50.786;7.840;2023-07-20T09:56:47;2.75;;;1.58;;
21806;SDS011;11065;50.786;7.840;2023-07-20T09:59:18;1.65;;;1.40;;
21806;SDS011;11065;50.786;7.840;2023-07-20T10:01:46;2.22;;;1.50;;
21806;SDS011;11065;50.786;7.840;2023-07-20T10:04:15;1.65;;;1.48;;
21806;SDS011;11065;50.786;7.840;2023-07-20T10:06:47;1.65;;;1.30;;
21806;SDS011;11065;50.786;7.840;2023-07-20T10:09:19;2.20;;;1.42;;
21806;SDS011;11065;50.786;7.840;2023-07-20T10:11:50;2.58;;;1.50;;
21806;SDS011;11065;50.786;7.840;2023-07-20T10:14:41;3.35;;;1.15;;
21806;SDS011;11065;50.786;7.840;2023-07-20T10:17:12;3.03;;;1.48;;
21806;SDS011;11065;50.786;7.840;2023-07-20T10:19:43;2.63;;;1.58;;
21806;SDS011;11065;50.786;7.840;2023-07-20T10:22:19;3.15;;;1.48;;
21806;SDS011;11065;50.786;7.840;2023-07-20T10:24:53;2.17;;;1.38;;
21806;SDS011;11065;50.786;7.840;2023-07-20T10:27:26;2.83;;;1.80;;
21806;SDS011;11065;50.786;7.840;2023-07-20T10:29:54;4.10;;;1.70;;
21806;SDS011;11065;50.786;7.840;2023-07-20T10:32:25;2.33;;;1.40;;
21806;SDS011;11065;50.786;7.840;2023-07-20T10:34:56;3.17;;;1.42;;
21806;SDS011;11065;50.786;7.840;2023-07-20T10:40:26;1.33;;;1.10;;
21806;SDS011;11065;50.786;7.840;2023-07-20T10:43:02;1.88;;;1.05;;
21806;SDS011;11065;50.786;7.840;2023-07-20T10:45:40;1.30;;;1.10;;
21806;SDS011;11065;50.786;7.840;2023-07-20T10:48:16;1.35;;;0.80;;
21806;SDS011;11065;50.786;7.840;2023-07-20T10:50:46;1.40;;;1.00;;
21806;SDS011;11065;50.786;7.840;2023-07-20T10:53:38;1.52;;;1.10;;
21806;SDS011;11065;50.786;7.840;2023-07-20T10:56:07;2.65;;;1.08;;
21806;SDS011;11065;50.786;7.840;2023-07-20T10:58:39;1.17;;;0.80;;
21806;SDS011;11065;50.786;7.840;2023-07-20T11:01:10;1.58;;;1.08;;
21806;SDS011;11065;50.786;7.840;2023-07-20T11:03:42;1.25;;;0.90;;
21806;SDS011;11065;50.786;7.840;2023-07-20T11:09:12;3.03;;;0.90;;
21806;SDS011;11065;50.786;7.840;2023-07-20T11:11:42;2.10;;;0.90;;
21806;SDS011;11065;50.786;7.840;2023-07-20T11:14:19;2.75;;;1.27;;
21806;SDS011;11065;50.786;7.840;2023-07-20T11:16:49;1.50;;;0.95;;
21806;SDS011;11065;50.786;7.840;2023-07-20T11:19:19;2.42;;;1.02;;
21806;SDS011;11065;50.786;7.840;2023-07-20T11:21:55;1.40;;;1.10;;
21806;SDS011;11065;50.786;7.840;2023-07-20T11:24:27;2.03;;;1.20;;
21806;SDS011;11065;50.786;7.840;2023-07-20T11:26:55;1.20;;;0.80;;
21806;SDS011;11065;50.786;7.840;2023-07-20T11:29:24;1.40;;;0.77;;
21806;SDS011;11065;50.786;7.840;2023-07-20T11:31:56;1.67;;;0.85;;
21806;SDS011;11065;50.786;7.840;2023-07-20T11:34:25;1.15;;;0.98;;
21806;SDS011;11065;50.786;7.840;2023-07-20T11:36:55;1.35;;;0.93;;
21806;SDS011;11065;50.786;7.840;2023-07-20T11:39:27;1.20;;;1.10;;
21806;SDS011;11065;50.786;7.840;2023-07-20T11:41:57;1.85;;;1.27;;
21806;SDS011;11065;50.786;7.840;2023-07-20T11:44:26;2.42;;;0.95;;
21806;SDS011;11065;50.786;7.840;2023-07-20T11:47:02;1.70;;;0.98;;
21806;SDS011;11065;50.786;7.840;2023-07-20T11:49:34;1.63;;;0.93;;
21806;SDS011;11065;50.786;7.840;2023-07-20T11:52:06;1.80;;;1.00;;
21806;SDS011;11065;50.786;7.840;2023-07-20T11:54:36;2.22;;;0.90;;
21806;SDS011;11065;50.786;7.840;2023-07-20T11:57:15;1.65;;;1.10;;
21806;SDS011;11065;50.786;7.840;2023-07-20T11:59:52;1.45;;;1.00;;
21806;SDS011;11065;50.786;7.840;2023-07-20T12:02:21;3.65;;;1.15;;
21806;SDS011;11065;50.786;7.840;2023-07-20T12:04:51;2.42;;;1.10;;
21806;SDS011;11065;50.786;7.840;2023-07-20T12:07:25;2.13;;;1.10;;
21806;SDS011;11065;50.786;7.840;2023-07-20T12:10:06;3.10;;;1.00;;
21806;SDS011;11065;50.786;7.840;2023-07-20T12:12:37;2.35;;;1.27;;
21806;SDS011;11065;50.786;7.840;2023-07-20T12:15:14;1.70;;;1.10;;
21806;SDS011;11065;50.786;7.840;2023-07-20T12:17:44;1.92;;;0.90;;
21806;SDS011;11065;50.786;7.840;2023-07-20T12:20:13;1.35;;;0.77;;
21806;SDS011;11065;50.786;7.840;2023-07-20T12:22:55;1.30;;;0.88;;
21806;SDS011;11065;50.786;7.840;2023-07-20T12:25:36;1.70;;;0.98;;
21806;SDS011;11065;50.786;7.840;2023-07-20T12:28:06;2.50;;;0.95;;
21806;SDS011;11065;50.786;7.840;2023-07-20T12:30:36;1.92;;;1.17;;
21806;SDS011;11065;50.786;7.840;2023-07-20T12:33:05;1.10;;;0.90;;
21806;SDS011;11065;50.786;7.840;2023-07-20T12:35:34;0.90;;;0.82;;
21806;SDS011;11065;50.786;7.840;2023-07-20T12:38:04;3.05;;;1.13;;
21806;SDS011;11065;50.786;7.840;2023-07-20T12:40:34;1.45;;;0.80;;
21806;SDS011;11065;50.786;7.840;2023-07-20T12:43:03;1.25;;;0.80;;
21806;SDS011;11065;50.786;7.840;2023-07-20T12:45:33;1.27;;;0.77;;
21806;SDS011;11065;50.786;7.840;2023-07-20T12:48:03;1.67;;;0.85;;
21806;SDS011;11065;50.786;7.840;2023-07-20T12:50:32;1.67;;;0.80;;
21806;SDS011;11065;50.786;7.840;2023-07-20T12:53:02;1.17;;;0.80;;
21806;SDS011;11065;50.786;7.840;2023-07-20T12:55:32;1.13;;;0.80;;
21806;SDS011;11065;50.786;7.840;2023-07-20T12:58:02;2.13;;;0.85;;
21806;SDS011;11065;50.786;7.840;2023-07-20T13:00:31;1.30;;;0.93;;
21806;SDS011;11065;50.786;7.840;2023-07-20T13:02:59;1.38;;;0.80;;
21806;SDS011;11065;50.786;7.840;2023-07-20T13:05:34;1.33;;;0.80;;
21806;SDS011;11065;50.786;7.840;2023-07-20T13:08:05;1.30;;;0.93;;
21806;SDS011;11065;50.786;7.840;2023-07-20T13:10:38;1.10;;;0.80;;
21806;SDS011;11065;50.786;7.840;2023-07-20T13:13:07;1.38;;;1.08;;
21806;SDS011;11065;50.786;7.840;2023-07-20T13:15:40;1.25;;;0.93;;
21806;SDS011;11065;50.786;7.840;2023-07-20T13:18:09;1.23;;;0.85;;
21806;SDS011;11065;50.786;7.840;2023-07-20T13:20:38;1.85;;;0.90;;
21806;SDS011;11065;50.786;7.840;2023-07-20T13:23:07;1.88;;;0.90;;
21806;SDS011;11065;50.786;7.840;2023-07-20T13:25:35;1.42;;;0.90;;
21806;SDS011;11065;50.786;7.840;2023-07-20T13:28:06;1.13;;;0.88;;
21806;SDS011;11065;50.786;7.840;2023-07-20T13:30:36;1.92;;;1.00;;
21806;SDS011;11065;50.786;7.840;2023-07-20T13:33:06;2.28;;;1.17;;
21806;SDS011;11065;50.786;7.840;2023-07-20T13:35:38;1.73;;;0.90;;
21806;SDS011;11065;50.786;7.840;2023-07-20T13:38:11;1.65;;;0.88;;
21806;SDS011;11065;50.786;7.840;2023-07-20T13:40:39;1.70;;;0.73;;
21806;SDS011;11065;50.786;7.840;2023-07-20T13:43:10;0.90;;;0.75;;
21806;SDS011;11065;50.786;7.840;2023-07-20T13:45:38;2.35;;;0.80;;
21806;SDS011;11065;50.786;7.840;2023-07-20T13:48:07;2.67;;;0.93;;
21806;SDS011;11065;50.786;7.840;2023-07-20T13:50:35;2.78;;;0.80;;
21806;SDS011;11065;50.786;7.840;2023-07-20T13:53:08;1.58;;;0.80;;
21806;SDS011;11065;50.786;7.840;2023-07-20T13:55:40;1.08;;;0.90;;
21806;SDS011;11065;50.786;7.840;2023-07-20T13:58:15;1.30;;;0.80;;
21806;SDS011;11065;50.786;7.840;2023-07-20T14:00:44;1.92;;;1.10;;
21806;SDS011;11065;50.786;7.840;2023-07-20T14:03:12;1.80;;;0.90;;
21806;SDS011;11065;50.786;7.840;2023-07-20T14:05:44;1.48;;;0.80;;
21806;SDS011;11065;50.786;7.840;2023-07-20T14:08:15;1.30;;;0.80;;
21806;SDS011;11065;50.786;7.840;2023-07-20T14:10:44;0.90;;;0.70;;
21806;SDS011;11065;50.786;7.840;2023-07-20T14:13:16;1.35;;;0.90;;
21806;SDS011;11065;50.786;7.840;2023-07-20T14:15:45;0.90;;;0.70;;
21806;SDS011;11065;50.786;7.840;2023-07-20T14:18:13;1.33;;;0.88;;
21806;SDS011;11065;50.786;7.840;2023-07-20T14:20:44;1.70;;;1.27;;
21806;SDS011;11065;50.786;7.840;2023-07-20T14:23:12;1.73;;;0.70;;
21806;SDS011;11065;50.786;7.840;2023-07-20T14:25:41;1.30;;;0.80;;
21806;SDS011;11065;50.786;7.840;2023-07-20T14:28:09;1.50;;;1.08;;
21806;SDS011;11065;50.786;7.840;2023-07-20T14:30:39;1.10;;;0.73;;
21806;SDS011;11065;50.786;7.840;2023-07-20T14:33:08;1.58;;;1.05;;
21806;SDS011;11065;50.786;7.840;2023-07-20T14:35:36;1.63;;;0.90;;
21806;SDS011;11065;50.786;7.840;2023-07-20T14:38:05;1.35;;;0.93;;
21806;SDS011;11065;50.786;7.840;2023-07-20T14:40:33;1.48;;;0.80;;
21806;SDS011;11065;50.786;7.840;2023-07-20T14:43:01;1.10;;;0.65;;
21806;SDS011;11065;50.786;7.840;2023-07-20T14:45:30;1.80;;;0.90;;
21806;SDS011;11065;50.786;7.840;2023-07-20T14:48:00;1.83;;;0.85;;
21806;SDS011;11065;50.786;7.840;2023-07-20T14:50:28;1.40;;;0.85;;
21806;SDS011;11065;50.786;7.840;2023-07-20T14:52:56;1.05;;;0.88;;
21806;SDS011;11065;50.786;7.840;2023-07-20T14:55:31;1.30;;;0.80;;
21806;SDS011;11065;50.786;7.840;2023-07-20T14:58:00;1.17;;;0.77;;
21806;SDS011;11065;50.786;7.840;2023-07-20T15:00:28;1.67;;;0.82;;
21806;SDS011;11065;50.786;7.840;2023-07-20T15:02:56;1.35;;;0.90;;
21806;SDS011;11065;50.786;7.840;2023-07-20T15:05:26;0.95;;;0.70;;
21806;SDS011;11065;50.786;7.840;2023-07-20T15:07:56;1.73;;;0.82;;
21806;SDS011;11065;50.786;7.840;2023-07-20T15:10:24;1.92;;;0.88;;
21806;SDS011;11065;50.786;7.840;2023-07-20T15:12:53;1.95;;;0.90;;
21806;SDS011;11065;50.786;7.840;2023-07-20T15:15:21;1.33;;;0.70;;
21806;SDS011;11065;50.786;7.840;2023-07-20T15:17:50;3.88;;;0.90;;
21806;SDS011;11065;50.786;7.840;2023-07-20T15:20:19;1.45;;;0.90;;
21806;SDS011;11065;50.786;7.840;2023-07-20T15:22:50;1.33;;;0.82;;
21806;SDS011;11065;50.786;7.840;2023-07-20T15:25:18;0.90;;;0.70;;
21806;SDS011;11065;50.786;7.840;2023-07-20T15:27:47;1.48;;;0.70;;
21806;SDS011;11065;50.786;7.840;2023-07-20T15:30:17;3.00;;;0.70;;